Time;durP1;ratioP1;P1;durP2;ratioP2;P2;SDS_P1;SDS_P2;PMS_P1;PMS_P2;Temp;Humidity;BMP_temperature;BMP_pressure;BME280_temperature;BME280_humidity;BME280_pressure;Samples;Min_cycle;Max_cycle;Signal;HPM_P1;HPM_P2
2023/06/15 00:01:58;;;;;;;5.13;4.07;;;;;;;;;;5080059;28;20036;-62
2023/06/15 00:04:23;;;;;;;6.53;4.00;;;;;;;;;;5068495;28;20761;-62
2023/06/15 00:06:48;;;;;;;5.97;4.20;;;;;;;;;;5079420;28;20046;-63
2023/06/15 00:09:14;;;;;;;5.53;4.40;;;;;;;;;;5076298;28;20302;-63
2023/06/15 00:11:39;;;;;;;5.17;4.43;;;;;;;;;;5067621;28;20043;-62
2023/06/15 00:14:05;;;;;;;6.18;4.72;;;;;;;;;;5074310;28;20538;-62
2023/06/15 00:16:31;;;;;;;7.53;5.35;;;;;;;;;;5063413;28;20052;-61
2023/06/15 00:18:57;;;;;;;7.28;4.97;;;;;;;;;;5074463;28;20499;-62
2023/06/15 00:21:22;;;;;;;6.20;5.13;;;;;;;;;;5046308;28;20032;-62
2023/06/15 00:23:48;;;;;;;5.85;5.00;;;;;;;;;;5036281;28;20843;-62
2023/06/15 00:26:13;;;;;;;7.22;4.78;;;;;;;;;;5083578;28;20044;-62
2023/06/15 00:28:38;;;;;;;5.90;4.50;;;;;;;;;;5062977;28;20035;-62
2023/06/15 00:31:03;;;;;;;5.37;4.27;;;;;;;;;;5077827;28;20053;-62
2023/06/15 00:33:29;;;;;;;6.90;4.85;;;;;;;;;;5064595;28;20281;-62
2023/06/15 00:35:54;;;;;;;5.10;4.38;;;;;;;;;;5080470;28;20043;-62
2023/06/15 00:38:19;;;;;;;7.20;4.77;;;;;;;;;;5054493;28;20047;-62
2023/06/15 00:40:45;;;;;;;5.67;4.57;;;;;;;;;;5073395;28;20343;-62
2023/06/15 00:43:11;;;;;;;6.45;4.82;;;;;;;;;;5053134;28;20569;-62
2023/06/15 00:45:36;;;;;;;6.65;4.63;;;;;;;;;;5063753;28;20064;-62
2023/06/15 00:48:01;;;;;;;5.67;4.30;;;;;;;;;;5087570;28;20169;-61
2023/06/15 00:50:29;;;;;;;4.90;3.80;;;;;;;;;;5075397;28;20131;-61
2023/06/15 00:52:55;;;;;;;6.35;4.65;;;;;;;;;;5064640;28;20278;-63
2023/06/15 00:55:20;;;;;;;6.53;4.65;;;;;;;;;;5050122;28;20048;-62
2023/06/15 00:57:49;;;;;;;7.03;5.00;;;;;;;;;;5078665;28;20043;-61
2023/06/15 01:00:15;;;;;;;5.93;4.05;;;;;;;;;;5058555;28;20040;-61
2023/06/15 01:02:41;;;;;;;5.22;4.00;;;;;;;;;;5060736;28;20115;-61
2023/06/15 01:05:06;;;;;;;7.20;4.55;;;;;;;;;;5060741;28;21085;-61
2023/06/15 01:07:35;;;;;;;5.30;4.53;;;;;;;;;;5076810;28;20033;-61
2023/06/15 01:10:00;;;;;;;6.22;4.30;;;;;;;;;;5060451;28;20405;-61
2023/06/15 01:12:28;;;;;;;6.27;4.00;;;;;;;;;;5072598;28;20181;-62
2023/06/15 01:14:53;;;;;;;5.78;4.30;;;;;;;;;;5077523;28;20409;-61
2023/06/15 01:17:23;;;;;;;6.13;4.30;;;;;;;;;;5070010;28;20045;-61
2023/06/15 01:19:57;;;;;;;5.95;4.50;;;;;;;;;;5067533;28;20302;-61
2023/06/15 01:22:44;;;;;;;6.03;4.47;;;;;;;;;;5063238;28;20110;-61
2023/06/15 01:25:26;;;;;;;6.53;4.15;;;;;;;;;;5070236;28;20656;-61
2023/06/15 01:27:51;;;;;;;6.38;3.97;;;;;;;;;;5064578;28;20036;-61
2023/06/15 01:30:17;;;;;;;5.67;4.10;;;;;;;;;;5075933;28;20047;-61
2023/06/15 01:32:42;;;;;;;4.97;4.05;;;;;;;;;;5058078;28;20348;-61
2023/06/15 01:35:08;;;;;;;4.85;3.72;;;;;;;;;;5075563;28;20028;-61
2023/06/15 01:37:33;;;;;;;7.35;4.57;;;;;;;;;;5046215;28;20050;-61
2023/06/15 01:39:58;;;;;;;6.78;4.20;;;;;;;;;;5071054;28;20101;-61
2023/06/15 01:42:24;;;;;;;5.03;4.05;;;;;;;;;;5077709;28;20036;-61
2023/06/15 01:44:50;;;;;;;7.78;4.40;;;;;;;;;;5092641;28;20577;-61
2023/06/15 01:47:16;;;;;;;5.35;4.43;;;;;;;;;;5052175;28;20133;-62
2023/06/15 01:49:41;;;;;;;7.40;4.53;;;;;;;;;;5066426;28;20155;-62
2023/06/15 01:52:07;;;;;;;5.97;4.57;;;;;;;;;;5066678;28;20029;-61
2023/06/15 01:54:32;;;;;;;8.20;4.75;;;;;;;;;;5058423;28;20802;-61
2023/06/15 01:56:57;;;;;;;5.10;4.43;;;;;;;;;;5072715;28;20099;-62
2023/06/15 01:59:22;;;;;;;6.93;4.75;;;;;;;;;;5048095;28;20369;-61
2023/06/15 02:01:48;;;;;;;4.67;4.07;;;;;;;;;;5040100;28;20095;-61
2023/06/15 02:04:13;;;;;;;5.60;4.07;;;;;;;;;;5035951;28;20284;-61
2023/06/15 02:06:38;;;;;;;6.93;4.83;;;;;;;;;;5037958;28;20040;-61
2023/06/15 02:09:03;;;;;;;6.17;4.63;;;;;;;;;;5034127;28;20379;-61
2023/06/15 02:11:29;;;;;;;5.75;4.18;;;;;;;;;;5028716;28;20801;-61
2023/06/15 02:13:54;;;;;;;5.95;4.60;;;;;;;;;;5038186;28;20036;-61
2023/06/15 02:16:19;;;;;;;5.75;4.30;;;;;;;;;;5042745;28;20041;-61
2023/06/15 02:18:45;;;;;;;5.53;4.30;;;;;;;;;;5029193;28;20075;-61
2023/06/15 02:21:10;;;;;;;6.38;4.60;;;;;;;;;;5028902;28;20343;-61
2023/06/15 02:23:35;;;;;;;7.35;4.47;;;;;;;;;;5049495;28;20095;-61
2023/06/15 02:26:01;;;;;;;5.63;4.32;;;;;;;;;;5029027;28;20041;-61
2023/06/15 02:28:26;;;;;;;6.83;4.37;;;;;;;;;;5041190;28;20047;-61
2023/06/15 02:30:51;;;;;;;5.70;4.27;;;;;;;;;;5042263;28;20378;-61
2023/06/15 02:33:17;;;;;;;6.93;4.50;;;;;;;;;;5036718;28;20379;-62
2023/06/15 02:35:42;;;;;;;6.20;4.47;;;;;;;;;;5027226;28;20457;-61
2023/06/15 02:38:08;;;;;;;7.27;4.40;;;;;;;;;;5041966;28;20033;-61
2023/06/15 02:40:33;;;;;;;5.17;4.27;;;;;;;;;;5028725;28;20888;-60
2023/06/15 02:42:59;;;;;;;6.82;4.53;;;;;;;;;;5027208;28;20323;-60
2023/06/15 02:45:24;;;;;;;5.57;4.60;;;;;;;;;;5048217;28;20410;-61
2023/06/15 02:47:49;;;;;;;5.67;3.90;;;;;;;;;;5037117;28;20112;-59
2023/06/15 02:50:17;;;;;;;8.80;5.07;;;;;;;;;;5044802;28;20410;-60
2023/06/15 02:52:45;;;;;;;4.90;4.00;;;;;;;;;;5046725;28;20033;-61
2023/06/15 02:55:13;;;;;;;5.75;4.40;;;;;;;;;;5054874;28;20076;-61
2023/06/15 02:57:38;;;;;;;5.55;4.38;;;;;;;;;;5055171;28;20068;-62
2023/06/15 03:00:05;;;;;;;5.55;4.50;;;;;;;;;;5032030;28;20461;-62
2023/06/15 03:02:30;;;;;;;6.65;4.68;;;;;;;;;;5042785;28;20041;-62
2023/06/15 03:04:56;;;;;;;7.45;4.70;;;;;;;;;;5051393;28;20075;-61
2023/06/15 03:07:23;;;;;;;6.07;4.40;;;;;;;;;;5043399;28;20051;-61
2023/06/15 03:09:48;;;;;;;5.72;4.60;;;;;;;;;;5039101;28;20103;-61
2023/06/15 03:12:14;;;;;;;6.45;4.28;;;;;;;;;;5035904;28;20422;-60
2023/06/15 03:14:39;;;;;;;6.38;4.45;;;;;;;;;;5042533;28;20037;-61
2023/06/15 03:17:04;;;;;;;4.97;4.10;;;;;;;;;;5026229;28;20037;-61
2023/06/15 03:19:30;;;;;;;4.57;4.05;;;;;;;;;;5033922;28;20116;-61
2023/06/15 03:21:57;;;;;;;6.55;4.28;;;;;;;;;;5026747;28;20041;-61
2023/06/15 03:24:23;;;;;;;6.80;4.25;;;;;;;;;;5028938;28;20048;-61
2023/06/15 03:26:49;;;;;;;5.07;3.83;;;;;;;;;;5038059;28;20052;-61
2023/06/15 03:29:14;;;;;;;6.90;3.67;;;;;;;;;;5033666;28;20206;-61
2023/06/15 03:31:40;;;;;;;5.93;4.27;;;;;;;;;;5063024;28;20036;-62
2023/06/15 03:34:08;;;;;;;5.45;4.32;;;;;;;;;;5029355;28;20272;-60
2023/06/15 03:36:35;;;;;;;7.18;4.65;;;;;;;;;;5030496;28;20025;-60
2023/06/15 03:39:01;;;;;;;6.68;4.25;;;;;;;;;;5029130;28;20036;-61
2023/06/15 03:41:30;;;;;;;7.20;3.83;;;;;;;;;;5032419;28;20479;-60
2023/06/15 03:43:55;;;;;;;6.57;4.40;;;;;;;;;;5030503;28;20551;-61
2023/06/15 03:46:20;;;;;;;5.97;4.38;;;;;;;;;;5062118;28;20120;-61
2023/06/15 03:48:46;;;;;;;6.47;4.47;;;;;;;;;;5014246;28;20114;-61
2023/06/15 03:51:11;;;;;;;7.13;5.05;;;;;;;;;;5033568;28;20780;-62
2023/06/15 03:53:37;;;;;;;6.10;4.95;;;;;;;;;;5012871;28;20047;-61
2023/06/15 03:56:02;;;;;;;6.68;4.78;;;;;;;;;;5033349;28;20043;-61
2023/06/15 03:58:27;;;;;;;8.32;4.93;;;;;;;;;;5056917;28;20024;-61
2023/06/15 04:00:53;;;;;;;7.15;5.10;;;;;;;;;;5038772;28;20080;-61
2023/06/15 04:03:18;;;;;;;6.78;4.85;;;;;;;;;;5055726;28;20478;-60
2023/06/15 04:05:43;;;;;;;7.17;5.43;;;;;;;;;;5051337;28;20016;-62
2023/06/15 04:08:09;;;;;;;6.90;5.25;;;;;;;;;;5068880;28;20834;-61
2023/06/15 04:10:34;;;;;;;6.75;5.38;;;;;;;;;;5035074;28;20044;-62
2023/06/15 04:13:00;;;;;;;6.85;5.07;;;;;;;;;;5056504;28;20032;-61
2023/06/15 04:15:25;;;;;;;8.55;5.80;;;;;;;;;;5072702;28;20044;-62
2023/06/15 04:17:50;;;;;;;6.22;4.80;;;;;;;;;;5070669;28;20071;-61
2023/06/15 04:20:16;;;;;;;7.93;4.77;;;;;;;;;;5056431;28;20043;-62
2023/06/15 04:22:41;;;;;;;6.30;4.97;;;;;;;;;;5053048;28;20048;-61
2023/06/15 04:25:07;;;;;;;7.85;5.55;;;;;;;;;;5056769;28;20035;-60
2023/06/15 04:27:34;;;;;;;6.68;5.40;;;;;;;;;;5057799;28;20032;-61
2023/06/15 04:29:59;;;;;;;7.03;5.20;;;;;;;;;;5041479;28;20059;-60
2023/06/15 04:32:25;;;;;;;5.93;4.75;;;;;;;;;;5055374;28;20501;-61
2023/06/15 04:34:52;;;;;;;6.38;4.70;;;;;;;;;;5071768;28;20036;-61
2023/06/15 04:37:18;;;;;;;6.22;4.50;;;;;;;;;;5067807;28;20028;-61
2023/06/15 04:39:44;;;;;;;5.75;4.57;;;;;;;;;;5056900;28;20047;-63
2023/06/15 04:42:09;;;;;;;6.40;4.28;;;;;;;;;;5071388;28;20110;-63
2023/06/15 04:44:35;;;;;;;5.93;4.55;;;;;;;;;;5051856;28;20043;-64
2023/06/15 04:47:03;;;;;;;6.03;4.45;;;;;;;;;;5038054;28;20048;-63
2023/06/15 04:49:30;;;;;;;6.47;4.45;;;;;;;;;;5072527;28;20052;-63
2023/06/15 04:51:55;;;;;;;5.72;4.47;;;;;;;;;;5053505;28;20120;-62
2023/06/15 04:54:21;;;;;;;5.60;4.28;;;;;;;;;;5054406;28;20521;-61
2023/06/15 04:56:46;;;;;;;5.90;4.70;;;;;;;;;;5071311;28;20044;-65
2023/06/15 04:59:11;;;;;;;6.07;4.78;;;;;;;;;;5076041;28;20024;-64
2023/06/15 05:01:37;;;;;;;6.00;4.50;;;;;;;;;;5056409;28;20048;-65
2023/06/15 05:04:02;;;;;;;5.40;4.87;;;;;;;;;;5072357;28;20326;-62
2023/06/15 05:06:27;;;;;;;5.57;5.00;;;;;;;;;;5049914;28;20302;-63
2023/06/15 05:08:52;;;;;;;6.82;4.93;;;;;;;;;;5053232;28;20347;-64
2023/06/15 05:11:18;;;;;;;7.03;5.05;;;;;;;;;;5071478;28;20123;-63
2023/06/15 05:13:43;;;;;;;8.05;5.00;;;;;;;;;;5055309;28;20057;-61
2023/06/15 05:16:08;;;;;;;7.65;5.30;;;;;;;;;;5062510;28;20195;-62
2023/06/15 05:18:33;;;;;;;7.20;5.40;;;;;;;;;;5053878;28;20039;-60
2023/06/15 05:20:59;;;;;;;7.47;5.35;;;;;;;;;;5060957;28;20290;-63
2023/06/15 05:23:24;;;;;;;7.40;5.57;;;;;;;;;;5076690;28;20115;-64
2023/06/15 05:25:50;;;;;;;6.00;5.10;;;;;;;;;;5077224;28;20811;-63
2023/06/15 05:28:17;;;;;;;8.13;5.53;;;;;;;;;;5059918;28;20065;-63
2023/06/15 05:30:42;;;;;;;7.95;5.50;;;;;;;;;;5075152;28;20060;-62
2023/06/15 05:33:08;;;;;;;7.55;5.75;;;;;;;;;;5057070;28;20046;-61
2023/06/15 05:35:33;;;;;;;7.63;5.67;;;;;;;;;;5073083;28;20469;-61
2023/06/15 05:37:58;;;;;;;7.72;5.90;;;;;;;;;;5072931;28;21021;-62
2023/06/15 05:40:23;;;;;;;8.05;6.05;;;;;;;;;;5070565;28;20048;-62
2023/06/15 05:42:49;;;;;;;6.47;5.20;;;;;;;;;;5058498;28;20783;-61
2023/06/15 05:45:14;;;;;;;9.93;5.78;;;;;;;;;;5054586;28;21014;-61
2023/06/15 05:47:39;;;;;;;9.18;5.65;;;;;;;;;;5075612;28;20032;-60
2023/06/15 05:50:05;;;;;;;8.65;5.78;;;;;;;;;;5058216;28;20071;-61
2023/06/15 05:52:30;;;;;;;7.70;5.53;;;;;;;;;;5053268;28;20474;-61
2023/06/15 05:54:56;;;;;;;6.22;5.15;;;;;;;;;;5075807;28;20037;-61
2023/06/15 05:57:21;;;;;;;7.32;5.15;;;;;;;;;;5072156;28;20630;-61
2023/06/15 05:59:46;;;;;;;7.37;5.03;;;;;;;;;;5053991;28;20029;-61
2023/06/15 06:02:12;;;;;;;12.32;5.97;;;;;;;;;;5074713;28;20356;-63
2023/06/15 06:04:37;;;;;;;6.15;5.15;;;;;;;;;;5042692;28;20518;-63
2023/06/15 06:07:03;;;;;;;7.32;5.68;;;;;;;;;;5071982;28;20048;-62
2023/06/15 06:09:28;;;;;;;7.78;5.50;;;;;;;;;;5042316;28;20048;-63
2023/06/15 06:11:53;;;;;;;8.70;6.00;;;;;;;;;;5053916;28;20040;-62
2023/06/15 06:14:19;;;;;;;8.20;6.05;;;;;;;;;;5058638;28;20306;-62
2023/06/15 06:16:44;;;;;;;8.67;5.40;;;;;;;;;;5075325;28;20477;-62
2023/06/15 06:19:09;;;;;;;7.55;5.90;;;;;;;;;;5052812;28;20473;-62
2023/06/15 06:21:35;;;;;;;9.52;6.15;;;;;;;;;;5054130;28;20748;-61
2023/06/15 06:24:00;;;;;;;7.90;6.05;;;;;;;;;;5073210;28;20130;-61
2023/06/15 06:26:25;;;;;;;7.82;6.28;;;;;;;;;;5054206;28;20518;-62
2023/06/15 06:28:51;;;;;;;9.03;6.00;;;;;;;;;;5075830;28;20048;-62
2023/06/15 06:31:16;;;;;;;9.25;6.75;;;;;;;;;;5037124;28;20913;-61
2023/06/15 06:33:42;;;;;;;7.93;5.97;;;;;;;;;;5053776;28;20050;-61
2023/06/15 06:36:08;;;;;;;11.10;6.68;;;;;;;;;;5040770;28;20395;-62
2023/06/15 06:38:33;;;;;;;10.27;6.00;;;;;;;;;;5073865;28;20899;-61
2023/06/15 06:40:59;;;;;;;7.97;6.25;;;;;;;;;;5074848;28;20128;-61
2023/06/15 06:43:24;;;;;;;7.70;5.97;;;;;;;;;;5072962;28;20035;-61
2023/06/15 06:45:49;;;;;;;8.27;6.18;;;;;;;;;;5058142;28;20308;-61
2023/06/15 06:48:14;;;;;;;8.70;6.87;;;;;;;;;;5053664;28;20497;-61
2023/06/15 06:50:40;;;;;;;8.27;6.90;;;;;;;;;;5055512;28;20575;-61
2023/06/15 06:53:05;;;;;;;9.90;6.70;;;;;;;;;;5073148;28;20193;-60
2023/06/15 06:55:30;;;;;;;10.13;6.63;;;;;;;;;;5074625;28;20051;-61
2023/06/15 06:58:00;;;;;;;11.33;6.57;;;;;;;;;;5050334;28;20890;-61
2023/06/15 07:00:25;;;;;;;10.10;7.03;;;;;;;;;;5059115;28;20298;-61
2023/06/15 07:02:50;;;;;;;10.40;7.07;;;;;;;;;;5073093;28;20036;-61
2023/06/15 07:05:15;;;;;;;9.77;7.37;;;;;;;;;;5063439;28;20880;-61
2023/06/15 07:07:41;;;;;;;8.70;7.00;;;;;;;;;;5038369;28;20758;-61
2023/06/15 07:10:06;;;;;;;10.67;7.87;;;;;;;;;;5068287;28;20044;-61
2023/06/15 07:12:31;;;;;;;11.52;7.80;;;;;;;;;;5059838;28;20295;-66
2023/06/15 07:14:56;;;;;;;13.97;8.47;;;;;;;;;;5054612;28;20040;-69
2023/06/15 07:17:22;;;;;;;11.40;7.73;;;;;;;;;;5071763;28;20059;-69
2023/06/15 07:19:47;;;;;;;10.40;8.02;;;;;;;;;;5058678;28;21095;-68
2023/06/15 07:22:12;;;;;;;10.43;7.60;;;;;;;;;;5042798;28;20055;-66
2023/06/15 07:24:38;;;;;;;13.32;8.10;;;;;;;;;;5069590;28;20082;-67
2023/06/15 07:27:03;;;;;;;15.68;8.27;;;;;;;;;;5051127;28;20031;-67
2023/06/15 07:29:28;;;;;;;12.00;7.80;;;;;;;;;;5059455;28;20119;-69
2023/06/15 07:31:54;;;;;;;9.55;7.68;;;;;;;;;;5053250;28;20064;-67
2023/06/15 07:34:19;;;;;;;12.38;8.43;;;;;;;;;;5049851;28;20056;-67
2023/06/15 07:36:45;;;;;;;10.68;8.15;;;;;;;;;;5041899;28;20058;-67
2023/06/15 07:39:10;;;;;;;11.63;8.10;;;;;;;;;;5056371;28;20798;-67
2023/06/15 07:41:35;;;;;;;12.85;8.70;;;;;;;;;;5068104;28;20594;-67
2023/06/15 07:44:02;;;;;;;10.25;7.93;;;;;;;;;;5054778;28;20797;-68
2023/06/15 07:46:27;;;;;;;10.75;7.70;;;;;;;;;;5039027;28;20108;-67
2023/06/15 07:48:52;;;;;;;14.05;8.48;;;;;;;;;;5051275;28;20067;-66
2023/06/15 07:51:17;;;;;;;10.00;8.20;;;;;;;;;;5069554;28;20056;-67
2023/06/15 07:53:43;;;;;;;12.85;9.30;;;;;;;;;;5040182;28;20506;-68
2023/06/15 07:56:08;;;;;;;12.45;8.10;;;;;;;;;;5056402;28;20454;-67
2023/06/15 07:58:33;;;;;;;12.18;8.23;;;;;;;;;;5069359;28;20039;-67
2023/06/15 08:00:59;;;;;;;13.10;7.70;;;;;;;;;;5056445;28;20590;-67
2023/06/15 08:03:24;;;;;;;11.05;7.97;;;;;;;;;;5072198;28;20543;-65
2023/06/15 08:05:49;;;;;;;11.63;8.13;;;;;;;;;;5055494;28;20089;-67
2023/06/15 08:08:15;;;;;;;13.02;8.70;;;;;;;;;;5055587;28;20035;-66
2023/06/15 08:10:40;;;;;;;12.18;8.27;;;;;;;;;;5051498;28;20050;-66
2023/06/15 08:13:06;;;;;;;13.15;9.05;;;;;;;;;;5070172;28;20044;-69
2023/06/15 08:15:32;;;;;;;12.98;8.82;;;;;;;;;;5056301;28;20137;-68
2023/06/15 08:17:57;;;;;;;12.50;8.52;;;;;;;;;;5039908;28;20501;-68
2023/06/15 08:20:22;;;;;;;13.80;9.10;;;;;;;;;;5070193;28;20067;-68
2023/06/15 08:22:47;;;;;;;12.07;8.70;;;;;;;;;;5069851;28;20067;-68
2023/06/15 08:25:13;;;;;;;12.32;9.30;;;;;;;;;;5068636;28;20293;-68
2023/06/15 08:27:38;;;;;;;12.20;8.95;;;;;;;;;;5070706;28;20160;-68
2023/06/15 08:30:04;;;;;;;12.70;8.75;;;;;;;;;;5068184;28;20056;-68
2023/06/15 08:32:29;;;;;;;11.15;9.38;;;;;;;;;;5035475;28;20093;-68
2023/06/15 08:34:55;;;;;;;11.25;9.02;;;;;;;;;;5035922;28;20044;-68
2023/06/15 08:37:21;;;;;;;10.95;8.75;;;;;;;;;;5050974;28;20047;-68
2023/06/15 08:39:46;;;;;;;10.02;8.25;;;;;;;;;;5049999;28;20033;-68
2023/06/15 08:42:11;;;;;;;11.17;8.87;;;;;;;;;;5053910;28;20036;-69
2023/06/15 08:44:37;;;;;;;11.63;8.43;;;;;;;;;;5050590;28;20368;-69
2023/06/15 08:47:03;;;;;;;10.95;8.82;;;;;;;;;;5049295;28;20124;-66
2023/06/15 08:49:30;;;;;;;10.60;8.23;;;;;;;;;;5036346;28;20029;-68
2023/06/15 08:51:55;;;;;;;10.43;8.07;;;;;;;;;;5037804;28;20032;-68
2023/06/15 08:54:21;;;;;;;10.37;8.67;;;;;;;;;;5048576;28;20039;-68
2023/06/15 08:56:46;;;;;;;11.45;7.75;;;;;;;;;;5032554;28;20301;-69
2023/06/15 08:59:11;;;;;;;10.90;8.40;;;;;;;;;;5047624;28;20119;-68
2023/06/15 09:01:39;;;;;;;10.17;7.80;;;;;;;;;;5037425;28;20832;-68
2023/06/15 09:04:04;;;;;;;11.05;8.18;;;;;;;;;;5055759;28;20106;-69
2023/06/15 09:06:30;;;;;;;9.93;7.80;;;;;;;;;;5048467;28;20510;-69
2023/06/15 09:08:55;;;;;;;12.80;9.33;;;;;;;;;;5056583;28;20301;-69
2023/06/15 09:11:21;;;;;;;11.32;8.23;;;;;;;;;;5038468;28;20375;-68
2023/06/15 09:13:48;;;;;;;11.38;8.98;;;;;;;;;;5050716;28;20354;-66
2023/06/15 09:16:14;;;;;;;10.68;8.95;;;;;;;;;;5049671;28;20048;-69
2023/06/15 09:18:43;;;;;;;12.93;9.38;;;;;;;;;;5066313;28;20032;-69
2023/06/15 09:21:10;;;;;;;14.27;10.98;;;;;;;;;;5068121;28;20497;-69
2023/06/15 09:23:35;;;;;;;14.82;9.57;;;;;;;;;;5048806;28;20044;-69
2023/06/15 09:26:00;;;;;;;12.67;9.80;;;;;;;;;;5091660;28;20655;-69
2023/06/15 09:28:29;;;;;;;15.70;9.97;;;;;;;;;;5049739;28;20334;-70
2023/06/15 09:30:59;;;;;;;13.63;9.10;;;;;;;;;;5059159;28;20398;-70
2023/06/15 09:33:25;;;;;;;;;;;;;;;;;;5037579;28;20196;-70
2023/06/15 09:36:00;;;;;;;13.90;9.70;;;;;;;;;;5053970;28;19912;-69
2023/06/15 09:38:27;;;;;;;16.73;10.30;;;;;;;;;;5038969;28;20429;-68
2023/06/15 09:40:52;;;;;;;15.27;10.07;;;;;;;;;;5036000;28;20202;-69
2023/06/15 09:43:18;;;;;;;11.50;9.60;;;;;;;;;;5054646;28;20529;-69
2023/06/15 09:45:50;;;;;;;13.43;10.13;;;;;;;;;;5054705;28;20050;-68
2023/06/15 09:48:16;;;;;;;13.25;10.02;;;;;;;;;;5036111;28;20542;-68
2023/06/15 09:50:41;;;;;;;13.32;10.20;;;;;;;;;;5066028;28;20151;-67
2023/06/15 09:53:06;;;;;;;12.47;9.73;;;;;;;;;;5050569;28;20036;-67
2023/06/15 09:55:31;;;;;;;11.73;9.40;;;;;;;;;;5071541;28;20878;-64
2023/06/15 09:57:57;;;;;;;14.43;10.23;;;;;;;;;;5049353;28;20310;-65
2023/06/15 10:00:22;;;;;;;13.40;9.93;;;;;;;;;;5055315;28;20036;-70
2023/06/15 10:02:47;;;;;;;12.70;10.55;;;;;;;;;;5057160;28;20083;-71
2023/06/15 10:05:14;;;;;;;14.23;10.13;;;;;;;;;;5054052;28;20039;-69
2023/06/15 10:07:41;;;;;;;14.77;10.35;;;;;;;;;;5058123;28;20040;-71
2023/06/15 10:10:07;;;;;;;15.10;10.02;;;;;;;;;;5054741;28;20040;-71
2023/06/15 10:12:33;;;;;;;12.85;10.57;;;;;;;;;;5057820;28;20482;-68
2023/06/15 10:15:03;;;;;;;15.57;11.13;;;;;;;;;;5059593;28;20111;-69
2023/06/15 10:17:37;;;;;;;12.82;10.15;;;;;;;;;;5056288;28;20136;-68
2023/06/15 10:20:23;;;;;;;14.82;11.05;;;;;;;;;;5055766;28;20070;-67
2023/06/15 10:22:51;;;;;;;16.83;11.18;;;;;;;;;;5053529;28;20044;-70
2023/06/15 10:25:16;;;;;;;13.90;10.98;;;;;;;;;;5054046;28;20037;-70
2023/06/15 10:27:42;;;;;;;14.18;11.10;;;;;;;;;;5043907;28;20191;-70
2023/06/15 10:30:26;;;;;;;14.63;10.63;;;;;;;;;;5052708;28;20811;-70
2023/06/15 10:32:56;;;;;;;14.55;9.98;;;;;;;;;;5053876;28;20130;-70
2023/06/15 10:35:23;;;;;;;15.43;11.38;;;;;;;;;;5040678;28;20705;-70
2023/06/15 10:37:51;;;;;;;14.07;10.50;;;;;;;;;;5058011;28;20040;-70
2023/06/15 10:40:18;;;;;;;15.70;11.23;;;;;;;;;;5052443;28;20063;-68
2023/06/15 10:42:44;;;;;;;16.58;11.40;;;;;;;;;;5056829;28;20755;-64
2023/06/15 10:45:39;;;;;;;14.00;11.57;;;;;;;;;;5041442;28;20033;-65
2023/06/15 10:48:04;;;;;;;16.65;10.65;;;;;;;;;;5056540;28;20072;-67
2023/06/15 10:50:42;;;;;;;15.38;11.02;;;;;;;;;;5053994;28;20168;-67
2023/06/15 10:53:20;;;;;;;13.63;10.68;;;;;;;;;;5058937;28;20078;-66
2023/06/15 10:55:46;;;;;;;13.20;10.23;;;;;;;;;;5057700;28;20051;-67
2023/06/15 10:58:15;;;;;;;13.07;10.45;;;;;;;;;;5030946;28;20068;-68
2023/06/15 11:00:41;;;;;;;13.48;10.25;;;;;;;;;;5028130;28;20101;-67
2023/06/15 11:03:06;;;;;;;13.00;9.70;;;;;;;;;;5034075;28;20450;-67
2023/06/15 11:05:42;;;;;;;13.27;11.00;;;;;;;;;;5030600;28;20044;-67
2023/06/15 11:08:19;;;;;;;11.30;9.85;;;;;;;;;;5034630;28;20115;-68
2023/06/15 11:10:45;;;;;;;13.85;9.50;;;;;;;;;;5030737;28;20053;-67
2023/06/15 11:13:10;;;;;;;11.05;8.93;;;;;;;;;;5035853;28;20048;-68
2023/06/15 11:15:36;;;;;;;11.18;9.15;;;;;;;;;;5030622;28;20044;-69
2023/06/15 11:18:04;;;;;;;10.10;8.45;;;;;;;;;;5034606;28;20041;-67
2023/06/15 11:20:39;;;;;;;10.13;8.20;;;;;;;;;;5018098;28;20112;-65
2023/06/15 11:23:09;;;;;;;11.65;8.57;;;;;;;;;;5034463;28;20039;-68
2023/06/15 11:25:36;;;;;;;9.75;8.02;;;;;;;;;;5018205;28;20106;-66
2023/06/15 11:28:02;;;;;;;10.80;8.15;;;;;;;;;;5032907;28;20045;-67
2023/06/15 11:30:28;;;;;;;11.43;7.78;;;;;;;;;;5031704;28;20053;-67
2023/06/15 11:32:53;;;;;;;9.95;7.90;;;;;;;;;;5030457;28;20391;-67
2023/06/15 11:35:19;;;;;;;7.97;6.67;;;;;;;;;;5030830;28;20037;-66
2023/06/15 11:37:44;;;;;;;9.43;7.60;;;;;;;;;;5035589;28;20291;-65
2023/06/15 11:40:10;;;;;;;8.88;6.68;;;;;;;;;;5029543;28;20037;-65
2023/06/15 11:42:35;;;;;;;8.48;7.57;;;;;;;;;;5017887;28;20065;-65
2023/06/15 11:45:01;;;;;;;8.68;7.07;;;;;;;;;;5019675;28;20037;-67
2023/06/15 11:47:26;;;;;;;8.43;6.97;;;;;;;;;;5035923;28;20041;-66
2023/06/15 11:49:51;;;;;;;8.43;6.87;;;;;;;;;;5032382;28;20048;-65
2023/06/15 11:52:16;;;;;;;8.35;7.13;;;;;;;;;;5030108;28;20394;-65
2023/06/15 11:54:43;;;;;;;9.03;6.83;;;;;;;;;;5018394;28;20055;-66
2023/06/15 11:57:08;;;;;;;9.77;7.53;;;;;;;;;;5013176;28;20046;-66
2023/06/15 11:59:35;;;;;;;7.60;6.47;;;;;;;;;;5028381;28;20048;-66
2023/06/15 12:02:02;;;;;;;7.53;6.30;;;;;;;;;;5030123;28;20037;-66
2023/06/15 12:04:30;;;;;;;9.00;7.03;;;;;;;;;;5029888;28;20209;-64
2023/06/15 12:06:55;;;;;;;8.65;6.50;;;;;;;;;;5028972;28;20032;-65
2023/06/15 12:09:21;;;;;;;9.60;6.65;;;;;;;;;;5029113;28;20536;-64
2023/06/15 12:11:46;;;;;;;7.57;6.72;;;;;;;;;;5031832;28;20051;-67
2023/06/15 12:14:12;;;;;;;6.97;6.27;;;;;;;;;;5027877;28;20040;-66
2023/06/15 12:16:37;;;;;;;8.23;6.28;;;;;;;;;;5018905;28;20300;-68
2023/06/15 12:19:03;;;;;;;7.38;6.18;;;;;;;;;;5018240;28;20534;-68
2023/06/15 12:21:29;;;;;;;8.43;6.43;;;;;;;;;;5030995;28;20040;-67
2023/06/15 12:23:55;;;;;;;7.88;6.47;;;;;;;;;;5033219;28;20036;-67
2023/06/15 12:26:21;;;;;;;7.60;6.40;;;;;;;;;;5029185;28;20426;-66
2023/06/15 12:28:49;;;;;;;7.20;5.95;;;;;;;;;;5029587;28;20029;-65
2023/06/15 12:31:15;;;;;;;7.25;5.78;;;;;;;;;;5017839;28;20114;-66
2023/06/15 12:33:42;;;;;;;6.80;5.68;;;;;;;;;;5031388;28;20044;-65
2023/06/15 12:36:11;;;;;;;6.65;5.93;;;;;;;;;;5029372;28;20037;-65
2023/06/15 12:38:37;;;;;;;6.93;5.85;;;;;;;;;;5028797;28;20032;-66
2023/06/15 12:41:03;;;;;;;7.30;5.78;;;;;;;;;;5018388;28;20045;-65
2023/06/15 12:43:28;;;;;;;7.47;5.63;;;;;;;;;;5018731;28;20399;-65
2023/06/15 12:45:54;;;;;;;6.80;5.72;;;;;;;;;;5039685;28;20025;-65
2023/06/15 12:48:20;;;;;;;6.38;5.35;;;;;;;;;;5032353;28;20036;-64
2023/06/15 12:50:45;;;;;;;6.57;5.78;;;;;;;;;;5050221;28;20535;-65
2023/06/15 12:53:11;;;;;;;6.23;5.50;;;;;;;;;;5031925;28;20057;-66
2023/06/15 12:55:36;;;;;;;7.28;5.57;;;;;;;;;;5023419;28;20662;-66
2023/06/15 12:58:03;;;;;;;6.85;5.90;;;;;;;;;;5020370;28;20073;-67
2023/06/15 13:00:31;;;;;;;6.28;5.57;;;;;;;;;;5037099;28;20122;-66
2023/06/15 13:03:00;;;;;;;7.18;5.78;;;;;;;;;;5050590;28;20036;-66
2023/06/15 13:05:26;;;;;;;6.87;5.50;;;;;;;;;;5028242;28;20033;-65
2023/06/15 13:07:51;;;;;;;6.63;5.40;;;;;;;;;;5031135;28;20041;-65
2023/06/15 13:10:16;;;;;;;6.20;5.35;;;;;;;;;;5031504;28;20053;-69
2023/06/15 13:12:43;;;;;;;6.70;5.90;;;;;;;;;;5031475;28;20037;-67
2023/06/15 13:15:09;;;;;;;7.18;5.97;;;;;;;;;;5033671;28;20122;-68
2023/06/15 13:17:37;;;;;;;7.32;6.00;;;;;;;;;;5034081;28;20202;-65
2023/06/15 13:20:07;;;;;;;8.13;6.80;;;;;;;;;;5031543;28;20126;-67
2023/06/15 13:22:32;;;;;;;8.45;6.20;;;;;;;;;;5031570;28;20041;-65
2023/06/15 13:24:57;;;;;;;7.18;5.70;;;;;;;;;;5028153;28;20441;-65
2023/06/15 13:27:23;;;;;;;6.77;5.93;;;;;;;;;;5027819;28;20061;-65
2023/06/15 13:29:48;;;;;;;7.45;6.40;;;;;;;;;;5031798;28;20704;-64
2023/06/15 13:32:15;;;;;;;7.10;6.03;;;;;;;;;;5028143;28;20601;-67
2023/06/15 13:34:41;;;;;;;6.90;6.20;;;;;;;;;;5010882;28;20033;-65
2023/06/15 13:37:06;;;;;;;8.15;5.75;;;;;;;;;;5028197;28;20046;-65
2023/06/15 13:39:31;;;;;;;7.68;6.40;;;;;;;;;;5018258;28;20053;-67
2023/06/15 13:41:57;;;;;;;7.50;5.80;;;;;;;;;;5037678;28;20565;-67
2023/06/15 13:44:22;;;;;;;9.75;6.18;;;;;;;;;;5013030;28;20080;-67
2023/06/15 13:46:47;;;;;;;8.83;6.23;;;;;;;;;;5029702;28;20044;-63
2023/06/15 13:49:12;;;;;;;8.23;6.30;;;;;;;;;;5033168;28;20303;-63
2023/06/15 13:51:38;;;;;;;8.18;7.05;;;;;;;;;;5032064;28;20087;-63
2023/06/15 13:54:03;;;;;;;9.02;6.40;;;;;;;;;;5047443;28;20049;-62
2023/06/15 13:56:28;;;;;;;8.27;6.13;;;;;;;;;;5033213;28;20057;-63
2023/06/15 13:58:54;;;;;;;7.93;6.40;;;;;;;;;;5030880;28;20443;-63
2023/06/15 14:01:23;;;;;;;10.18;6.68;;;;;;;;;;5029901;28;20134;-64
2023/06/15 14:03:48;;;;;;;8.52;6.05;;;;;;;;;;5029399;28;20592;-64
2023/06/15 14:06:15;;;;;;;7.53;6.10;;;;;;;;;;5029782;28;20037;-64
2023/06/15 14:08:40;;;;;;;7.43;6.20;;;;;;;;;;5034948;28;20205;-64
2023/06/15 14:11:05;;;;;;;7.83;5.63;;;;;;;;;;5032723;28;20045;-63
2023/06/15 14:13:31;;;;;;;6.67;5.97;;;;;;;;;;5033219;28;20296;-62
2023/06/15 14:15:56;;;;;;;9.83;6.40;;;;;;;;;;5031292;28;20287;-63
2023/06/15 14:18:23;;;;;;;7.10;6.13;;;;;;;;;;5030814;28;20048;-66
2023/06/15 14:20:48;;;;;;;9.52;6.43;;;;;;;;;;5030510;28;20146;-64
2023/06/15 14:23:13;;;;;;;7.80;6.45;;;;;;;;;;5029608;28;20132;-64
2023/06/15 14:25:39;;;;;;;7.67;6.03;;;;;;;;;;5027432;28;20065;-66
2023/06/15 14:28:04;;;;;;;8.57;6.45;;;;;;;;;;5034049;28;20048;-66
2023/06/15 14:30:30;;;;;;;9.43;7.05;;;;;;;;;;5035063;28;20049;-65
2023/06/15 14:32:55;;;;;;;9.07;6.97;;;;;;;;;;5034085;28;20056;-65